sensor_id;sensor_type;location;lat;lon;timestamp;temperature;humidity
4451;DHT22;2238;50.180;9.230;2023-02-01T00:01:08;4.30;99.90
4451;DHT22;2238;50.180;9.230;2023-02-01T00:04:08;4.30;99.90
4451;DHT22;2238;50.180;9.230;2023-02-01T00:07:09;4.30;99.90
4451;DHT22;2238;50.180;9.230;2023-02-01T00:10:10;4.30;99.90
4451;DHT22;2238;50.180;9.230;2023-02-01T00:13:10;4.30;99.90
4451;DHT22;2238;50.180;9.230;2023-02-01T00:16:14;4.20;99.90
4451;DHT22;2238;50.180;9.230;2023-02-01T00:19:16;4.20;99.90
4451;DHT22;2238;50.180;9.230;2023-02-01T00:22:17;4.30;99.90
4451;DHT22;2238;50.180;9.230;2023-02-01T00:25:17;4.30;99.90
4451;DHT22;2238;50.180;9.230;2023-02-01T00:28:18;4.30;99.90
4451;DHT22;2238;50.180;9.230;2023-02-01T00:31:18;4.30;99.90
4451;DHT22;2238;50.180;9.230;2023-02-01T00:34:19;4.30;99.90
4451;DHT22;2238;50.180;9.230;2023-02-01T00:37:20;4.20;99.90
4451;DHT22;2238;50.180;9.230;2023-02-01T00:40:21;4.30;99.90
4451;DHT22;2238;50.180;9.230;2023-02-01T00:43:22;4.30;99.90
4451;DHT22;2238;50.180;9.230;2023-02-01T00:46:23;4.40;99.90
4451;DHT22;2238;50.180;9.230;2023-02-01T00:49:24;4.20;99.90
4451;DHT22;2238;50.180;9.230;2023-02-01T00:52:24;4.30;99.90
4451;DHT22;2238;50.180;9.230;2023-02-01T00:55:25;4.30;99.90
4451;DHT22;2238;50.180;9.230;2023-02-01T00:58:26;4.30;99.90
4451;DHT22;2238;50.180;9.230;2023-02-01T01:01:27;4.30;99.90
4451;DHT22;2238;50.180;9.230;2023-02-01T01:04:28;4.40;99.90
4451;DHT22;2238;50.180;9.230;2023-02-01T01:07:28;4.40;99.90
4451;DHT22;2238;50.180;9.230;2023-02-01T01:10:29;4.40;99.90
4451;DHT22;2238;50.180;9.230;2023-02-01T01:13:30;4.40;99.90
4451;DHT22;2238;50.180;9.230;2023-02-01T01:16:31;4.40;99.90
4451;DHT22;2238;50.180;9.230;2023-02-01T01:19:32;4.40;99.90
4451;DHT22;2238;50.180;9.230;2023-02-01T01:22:32;4.50;99.90
4451;DHT22;2238;50.180;9.230;2023-02-01T01:25:40;4.50;99.90
4451;DHT22;2238;50.180;9.230;2023-02-01T01:28:40;4.50;99.90
4451;DHT22;2238;50.180;9.230;2023-02-01T01:31:41;4.50;99.90
4451;DHT22;2238;50.180;9.230;2023-02-01T01:34:41;4.50;99.90
4451;DHT22;2238;50.180;9.230;2023-02-01T01:37:42;4.50;99.90
4451;DHT22;2238;50.180;9.230;2023-02-01T01:40:47;4.50;99.90
4451;DHT22;2238;50.180;9.230;2023-02-01T01:46:53;4.50;99.90
4451;DHT22;2238;50.180;9.230;2023-02-01T01:49:54;4.50;99.90
4451;DHT22;2238;50.180;9.230;2023-02-01T01:52:58;4.50;99.90
4451;DHT22;2238;50.180;9.230;2023-02-01T01:56:00;4.50;99.90
4451;DHT22;2238;50.180;9.230;2023-02-01T01:59:02;4.50;99.90
4451;DHT22;2238;50.180;9.230;2023-02-01T02:02:03;4.50;99.90
4451;DHT22;2238;50.180;9.230;2023-02-01T02:05:04;4.60;99.90
4451;DHT22;2238;50.180;9.230;2023-02-01T02:08:05;4.50;99.90
4451;DHT22;2238;50.180;9.230;2023-02-01T02:11:05;4.60;99.90
4451;DHT22;2238;50.180;9.230;2023-02-01T02:14:09;4.20;99.90
4451;DHT22;2238;50.180;9.230;2023-02-01T02:20:32;4.50;99.90
4451;DHT22;2238;50.180;9.230;2023-02-01T02:24:07;4.50;99.90
4451;DHT22;2238;50.180;9.230;2023-02-01T02:37:14;4.60;99.90
4451;DHT22;2238;50.180;9.230;2023-02-01T02:40:47;4.60;99.90
4451;DHT22;2238;50.180;9.230;2023-02-01T02:43:55;4.60;99.90
4451;DHT22;2238;50.180;9.230;2023-02-01T02:47:33;4.60;99.90
4451;DHT22;2238;50.180;9.230;2023-02-01T02:50:43;4.60;99.90
4451;DHT22;2238;50.180;9.230;2023-02-01T02:54:13;4.60;99.90
4451;DHT22;2238;50.180;9.230;2023-02-01T02:57:39;4.60;99.90
4451;DHT22;2238;50.180;9.230;2023-02-01T03:00:59;4.60;99.90
4451;DHT22;2238;50.180;9.230;2023-02-01T03:04:20;4.60;99.90
4451;DHT22;2238;50.180;9.230;2023-02-01T03:07:57;4.60;99.90
4451;DHT22;2238;50.180;9.230;2023-02-01T03:14:02;4.60;99.90
4451;DHT22;2238;50.180;9.230;2023-02-01T03:17:15;4.60;99.90
4451;DHT22;2238;50.180;9.230;2023-02-01T03:20:18;4.60;99.90
4451;DHT22;2238;50.180;9.230;2023-02-01T03:23:27;4.70;99.90
4451;DHT22;2238;50.180;9.230;2023-02-01T03:26:33;4.70;99.90
4451;DHT22;2238;50.180;9.230;2023-02-01T03:29:46;4.70;99.90
4451;DHT22;2238;50.180;9.230;2023-02-01T03:32:51;4.70;99.90
4451;DHT22;2238;50.180;9.230;2023-02-01T03:36:09;4.70;99.90
4451;DHT22;2238;50.180;9.230;2023-02-01T03:42:46;4.60;99.90
4451;DHT22;2238;50.180;9.230;2023-02-01T03:45:57;4.60;99.90
4451;DHT22;2238;50.180;9.230;2023-02-01T03:49:02;4.60;99.90
4451;DHT22;2238;50.180;9.230;2023-02-01T03:52:05;4.60;99.90
4451;DHT22;2238;50.180;9.230;2023-02-01T03:55:08;4.60;99.90
4451;DHT22;2238;50.180;9.230;2023-02-01T03:58:18;4.60;99.90
4451;DHT22;2238;50.180;9.230;2023-02-01T04:01:19;4.60;99.90
4451;DHT22;2238;50.180;9.230;2023-02-01T04:04:19;4.60;99.90
4451;DHT22;2238;50.180;9.230;2023-02-01T04:07:20;4.60;99.90
4451;DHT22;2238;50.180;9.230;2023-02-01T04:10:20;4.60;99.90
4451;DHT22;2238;50.180;9.230;2023-02-01T04:13:21;4.60;99.90
4451;DHT22;2238;50.180;9.230;2023-02-01T04:16:21;4.60;99.90
4451;DHT22;2238;50.180;9.230;2023-02-01T04:19:22;4.60;99.90
4451;DHT22;2238;50.180;9.230;2023-02-01T04:22:23;4.60;99.90
4451;DHT22;2238;50.180;9.230;2023-02-01T04:25:23;4.60;99.90
4451;DHT22;2238;50.180;9.230;2023-02-01T04:28:24;4.60;99.90
4451;DHT22;2238;50.180;9.230;2023-02-01T04:31:24;4.60;99.90
4451;DHT22;2238;50.180;9.230;2023-02-01T04:34:25;4.60;99.90
4451;DHT22;2238;50.180;9.230;2023-02-01T04:37:26;4.60;99.90
4451;DHT22;2238;50.180;9.230;2023-02-01T04:40:27;4.60;99.90
4451;DHT22;2238;50.180;9.230;2023-02-01T04:43:27;4.60;99.90
4451;DHT22;2238;50.180;9.230;2023-02-01T04:46:28;4.70;99.90
4451;DHT22;2238;50.180;9.230;2023-02-01T04:49:29;4.60;99.90
4451;DHT22;2238;50.180;9.230;2023-02-01T04:52:29;4.60;99.90
4451;DHT22;2238;50.180;9.230;2023-02-01T04:55:30;4.60;99.90
4451;DHT22;2238;50.180;9.230;2023-02-01T04:58:31;4.60;99.90
4451;DHT22;2238;50.180;9.230;2023-02-01T05:01:31;4.60;99.90
4451;DHT22;2238;50.180;9.230;2023-02-01T05:04:32;6.50;99.90
4451;DHT22;2238;50.180;9.230;2023-02-01T05:07:33;4.60;99.90
4451;DHT22;2238;50.180;9.230;2023-02-01T05:10:33;4.60;99.90
4451;DHT22;2238;50.180;9.230;2023-02-01T05:13:34;4.60;99.90
4451;DHT22;2238;50.180;9.230;2023-02-01T05:16:49;4.60;99.90
4451;DHT22;2238;50.180;9.230;2023-02-01T05:19:50;4.70;99.90
4451;DHT22;2238;50.180;9.230;2023-02-01T05:22:51;4.60;99.90
4451;DHT22;2238;50.180;9.230;2023-02-01T05:25:51;4.60;99.90
4451;DHT22;2238;50.180;9.230;2023-02-01T05:28:52;4.60;99.90
4451;DHT22;2238;50.180;9.230;2023-02-01T05:31:52;4.60;99.90
4451;DHT22;2238;50.180;9.230;2023-02-01T05:34:53;4.60;99.90
4451;DHT22;2238;50.180;9.230;2023-02-01T05:37:54;4.70;99.90
4451;DHT22;2238;50.180;9.230;2023-02-01T05:40:54;4.70;99.90
4451;DHT22;2238;50.180;9.230;2023-02-01T05:43:55;4.60;99.90
4451;DHT22;2238;50.180;9.230;2023-02-01T05:46:56;4.70;99.90
4451;DHT22;2238;50.180;9.230;2023-02-01T05:49:56;4.70;99.90
4451;DHT22;2238;50.180;9.230;2023-02-01T05:52:57;4.70;99.90
4451;DHT22;2238;50.180;9.230;2023-02-01T05:55:57;4.70;99.90
4451;DHT22;2238;50.180;9.230;2023-02-01T05:58:58;4.80;99.90
4451;DHT22;2238;50.180;9.230;2023-02-01T06:01:59;6.90;99.90
4451;DHT22;2238;50.180;9.230;2023-02-01T06:04:59;4.70;99.90
4451;DHT22;2238;50.180;9.230;2023-02-01T06:08:00;4.70;99.90
4451;DHT22;2238;50.180;9.230;2023-02-01T06:11:02;4.70;99.90
4451;DHT22;2238;50.180;9.230;2023-02-01T06:14:03;4.70;99.90
4451;DHT22;2238;50.180;9.230;2023-02-01T06:17:03;4.70;99.90
4451;DHT22;2238;50.180;9.230;2023-02-01T06:20:06;4.60;99.90
4451;DHT22;2238;50.180;9.230;2023-02-01T06:23:07;4.50;99.90
4451;DHT22;2238;50.180;9.230;2023-02-01T06:26:07;4.50;99.90
4451;DHT22;2238;50.180;9.230;2023-02-01T06:29:11;4.50;99.90
4451;DHT22;2238;50.180;9.230;2023-02-01T06:32:12;4.50;99.90
4451;DHT22;2238;50.180;9.230;2023-02-01T06:35:12;4.50;99.90
4451;DHT22;2238;50.180;9.230;2023-02-01T06:38:16;4.50;99.90
4451;DHT22;2238;50.180;9.230;2023-02-01T06:41:17;4.50;99.90
4451;DHT22;2238;50.180;9.230;2023-02-01T06:44:18;4.50;99.90
4451;DHT22;2238;50.180;9.230;2023-02-01T06:47:18;4.40;99.90
4451;DHT22;2238;50.180;9.230;2023-02-01T06:50:19;4.40;99.90
4451;DHT22;2238;50.180;9.230;2023-02-01T06:53:20;4.50;99.90
4451;DHT22;2238;50.180;9.230;2023-02-01T06:56:22;4.50;99.90
4451;DHT22;2238;50.180;9.230;2023-02-01T06:59:22;4.50;99.90
4451;DHT22;2238;50.180;9.230;2023-02-01T07:02:23;4.40;99.90
4451;DHT22;2238;50.180;9.230;2023-02-01T07:05:24;4.50;99.90
4451;DHT22;2238;50.180;9.230;2023-02-01T07:08:26;4.50;99.90
4451;DHT22;2238;50.180;9.230;2023-02-01T07:11:27;4.50;99.90
4451;DHT22;2238;50.180;9.230;2023-02-01T07:14:28;4.50;99.90
4451;DHT22;2238;50.180;9.230;2023-02-01T07:17:29;4.50;99.90
4451;DHT22;2238;50.180;9.230;2023-02-01T07:20:29;4.50;99.90
4451;DHT22;2238;50.180;9.230;2023-02-01T07:23:30;4.50;99.90
4451;DHT22;2238;50.180;9.230;2023-02-01T07:26:30;4.50;99.90
4451;DHT22;2238;50.180;9.230;2023-02-01T07:29:31;4.50;99.90
4451;DHT22;2238;50.180;9.230;2023-02-01T07:32:32;4.60;99.90
4451;DHT22;2238;50.180;9.230;2023-02-01T07:35:32;4.60;99.90
4451;DHT22;2238;50.180;9.230;2023-02-01T07:38:33;4.60;99.90
4451;DHT22;2238;50.180;9.230;2023-02-01T07:41:34;4.60;99.90
4451;DHT22;2238;50.180;9.230;2023-02-01T07:44:34;4.50;99.90
4451;DHT22;2238;50.180;9.230;2023-02-01T07:47:35;4.60;99.90
4451;DHT22;2238;50.180;9.230;2023-02-01T07:50:35;4.60;99.90
4451;DHT22;2238;50.180;9.230;2023-02-01T07:53:36;4.60;99.90
4451;DHT22;2238;50.180;9.230;2023-02-01T07:56:37;4.60;99.90
4451;DHT22;2238;50.180;9.230;2023-02-01T07:59:37;4.60;99.90
4451;DHT22;2238;50.180;9.230;2023-02-01T08:03:01;4.60;99.90
4451;DHT22;2238;50.180;9.230;2023-02-01T08:06:03;4.60;99.90
4451;DHT22;2238;50.180;9.230;2023-02-01T08:09:05;4.60;99.90
4451;DHT22;2238;50.180;9.230;2023-02-01T08:12:06;4.50;99.90
4451;DHT22;2238;50.180;9.230;2023-02-01T08:15:07;4.60;99.90
4451;DHT22;2238;50.180;9.230;2023-02-01T08:18:07;4.60;99.90
4451;DHT22;2238;50.180;9.230;2023-02-01T08:21:14;4.50;99.90
4451;DHT22;2238;50.180;9.230;2023-02-01T08:24:15;3.60;99.90
4451;DHT22;2238;50.180;9.230;2023-02-01T08:27:15;4.50;99.90
4451;DHT22;2238;50.180;9.230;2023-02-01T08:30:16;4.60;99.90
4451;DHT22;2238;50.180;9.230;2023-02-01T08:33:17;4.50;99.90
4451;DHT22;2238;50.180;9.230;2023-02-01T08:36:18;4.80;99.90
4451;DHT22;2238;50.180;9.230;2023-02-01T08:39:19;4.60;99.90
4451;DHT22;2238;50.180;9.230;2023-02-01T08:42:20;4.60;99.90
4451;DHT22;2238;50.180;9.230;2023-02-01T08:45:39;4.60;99.90
4451;DHT22;2238;50.180;9.230;2023-02-01T08:48:40;4.60;99.90
4451;DHT22;2238;50.180;9.230;2023-02-01T08:51:41;4.50;99.90
4451;DHT22;2238;50.180;9.230;2023-02-01T08:54:41;4.60;99.90
4451;DHT22;2238;50.180;9.230;2023-02-01T08:57:42;4.60;99.90
4451;DHT22;2238;50.180;9.230;2023-02-01T09:00:44;4.60;99.90
4451;DHT22;2238;50.180;9.230;2023-02-01T09:03:48;4.60;99.90
4451;DHT22;2238;50.180;9.230;2023-02-01T09:06:48;4.60;99.90
4451;DHT22;2238;50.180;9.230;2023-02-01T09:09:49;6.60;99.90
4451;DHT22;2238;50.180;9.230;2023-02-01T09:12:50;6.50;99.90
4451;DHT22;2238;50.180;9.230;2023-02-01T09:15:51;4.60;99.90
4451;DHT22;2238;50.180;9.230;2023-02-01T09:18:51;4.60;99.90
4451;DHT22;2238;50.180;9.230;2023-02-01T09:21:52;4.60;99.90
4451;DHT22;2238;50.180;9.230;2023-02-01T09:24:53;4.70;99.90
4451;DHT22;2238;50.180;9.230;2023-02-01T09:27:54;4.70;99.90
4451;DHT22;2238;50.180;9.230;2023-02-01T09:30:58;6.40;99.90
4451;DHT22;2238;50.180;9.230;2023-02-01T09:33:59;4.70;99.90
4451;DHT22;2238;50.180;9.230;2023-02-01T09:37:00;4.70;99.90
4451;DHT22;2238;50.180;9.230;2023-02-01T09:40:00;4.70;99.90
4451;DHT22;2238;50.180;9.230;2023-02-01T09:49:31;4.80;99.90
4451;DHT22;2238;50.180;9.230;2023-02-01T09:52:44;4.80;99.90
4451;DHT22;2238;50.180;9.230;2023-02-01T09:55:50;4.80;99.90
4451;DHT22;2238;50.180;9.230;2023-02-01T09:59:15;4.80;99.90
4451;DHT22;2238;50.180;9.230;2023-02-01T10:02:25;4.80;99.90
4451;DHT22;2238;50.180;9.230;2023-02-01T10:05:49;4.90;99.90
4451;DHT22;2238;50.180;9.230;2023-02-01T10:09:01;4.80;99.90
4451;DHT22;2238;50.180;9.230;2023-02-01T10:12:36;4.80;99.90
4451;DHT22;2238;50.180;9.230;2023-02-01T10:16:08;4.90;99.90
4451;DHT22;2238;50.180;9.230;2023-02-01T10:22:40;4.90;99.90
4451;DHT22;2238;50.180;9.230;2023-02-01T10:25:54;4.90;99.90
4451;DHT22;2238;50.180;9.230;2023-02-01T10:29:00;4.90;99.90
4451;DHT22;2238;50.180;9.230;2023-02-01T10:32:02;5.80;99.90
4451;DHT22;2238;50.180;9.230;2023-02-01T10:35:29;4.90;99.90
4451;DHT22;2238;50.180;9.230;2023-02-01T10:38:32;5.00;99.90
4451;DHT22;2238;50.180;9.230;2023-02-01T10:41:35;4.90;99.90
4451;DHT22;2238;50.180;9.230;2023-02-01T10:44:41;4.90;99.90
4451;DHT22;2238;50.180;9.230;2023-02-01T10:47:43;5.00;99.90
4451;DHT22;2238;50.180;9.230;2023-02-01T10:50:58;5.00;99.90
4451;DHT22;2238;50.180;9.230;2023-02-01T10:54:32;5.00;99.90
4451;DHT22;2238;50.180;9.230;2023-02-01T10:57:33;5.80;99.90
4451;DHT22;2238;50.180;9.230;2023-02-01T11:00:42;5.10;99.90
4451;DHT22;2238;50.180;9.230;2023-02-01T11:03:57;5.10;99.90
4451;DHT22;2238;50.180;9.230;2023-02-01T11:07:12;5.10;99.90
4451;DHT22;2238;50.180;9.230;2023-02-01T11:10:39;5.10;99.90
4451;DHT22;2238;50.180;9.230;2023-02-01T11:13:41;5.20;99.90
4451;DHT22;2238;50.180;9.230;2023-02-01T11:16:54;5.20;99.90
4451;DHT22;2238;50.180;9.230;2023-02-01T11:20:04;5.90;99.90
4451;DHT22;2238;50.180;9.230;2023-02-01T11:23:16;5.30;99.90
4451;DHT22;2238;50.180;9.230;2023-02-01T11:26:26;5.30;99.90
4451;DHT22;2238;50.180;9.230;2023-02-01T11:29:31;5.30;99.90
4451;DHT22;2238;50.180;9.230;2023-02-01T11:32:33;5.30;99.90
4451;DHT22;2238;50.180;9.230;2023-02-01T11:35:37;5.40;99.90
4451;DHT22;2238;50.180;9.230;2023-02-01T11:38:53;5.40;99.90
4451;DHT22;2238;50.180;9.230;2023-02-01T11:45:19;5.30;99.90
4451;DHT22;2238;50.180;9.230;2023-02-01T11:48:20;7.20;99.90
4451;DHT22;2238;50.180;9.230;2023-02-01T11:55:30;5.20;99.90
4451;DHT22;2238;50.180;9.230;2023-02-01T12:02:26;5.30;99.90
4451;DHT22;2238;50.180;9.230;2023-02-01T12:09:16;5.20;99.90
4451;DHT22;2238;50.180;9.230;2023-02-01T12:22:49;5.30;99.90
4451;DHT22;2238;50.180;9.230;2023-02-01T12:25:57;5.30;99.90
4451;DHT22;2238;50.180;9.230;2023-02-01T12:35:38;5.30;99.90
4451;DHT22;2238;50.180;9.230;2023-02-01T12:39:05;5.30;99.90
4451;DHT22;2238;50.180;9.230;2023-02-01T12:42:19;5.30;99.90
4451;DHT22;2238;50.180;9.230;2023-02-01T12:45:39;5.40;99.90
4451;DHT22;2238;50.180;9.230;2023-02-01T12:52:01;5.40;99.90
4451;DHT22;2238;50.180;9.230;2023-02-01T12:55:16;5.40;99.90
4451;DHT22;2238;50.180;9.230;2023-02-01T13:01:40;5.40;99.90
4451;DHT22;2238;50.180;9.230;2023-02-01T13:05:03;5.40;99.90
4451;DHT22;2238;50.180;9.230;2023-02-01T13:08:12;5.40;99.90
4451;DHT22;2238;50.180;9.230;2023-02-01T13:11:24;5.40;99.90
4451;DHT22;2238;50.180;9.230;2023-02-01T13:14:33;5.40;99.90
4451;DHT22;2238;50.180;9.230;2023-02-01T13:17:36;5.50;99.90
4451;DHT22;2238;50.180;9.230;2023-02-01T13:24:33;5.40;99.90
4451;DHT22;2238;50.180;9.230;2023-02-01T13:27:35;5.50;99.90
4451;DHT22;2238;50.180;9.230;2023-02-01T13:30:39;5.40;99.90
4451;DHT22;2238;50.180;9.230;2023-02-01T13:33:49;5.50;99.90
4451;DHT22;2238;50.180;9.230;2023-02-01T13:43:29;5.60;99.90
4451;DHT22;2238;50.180;9.230;2023-02-01T13:46:30;5.50;99.90
4451;DHT22;2238;50.180;9.230;2023-02-01T13:49:39;5.50;99.90
4451;DHT22;2238;50.180;9.230;2023-02-01T13:52:44;5.50;99.90
4451;DHT22;2238;50.180;9.230;2023-02-01T13:55:46;5.50;99.90
4451;DHT22;2238;50.180;9.230;2023-02-01T13:58:50;5.50;99.90
4451;DHT22;2238;50.180;9.230;2023-02-01T14:01:51;5.60;99.90
4451;DHT22;2238;50.180;9.230;2023-02-01T14:04:52;5.60;99.90
4451;DHT22;2238;50.180;9.230;2023-02-01T14:14:48;5.60;99.90
4451;DHT22;2238;50.180;9.230;2023-02-01T14:17:49;5.60;99.90
4451;DHT22;2238;50.180;9.230;2023-02-01T14:20:50;5.60;99.90
4451;DHT22;2238;50.180;9.230;2023-02-01T14:30:15;5.60;99.90
4451;DHT22;2238;50.180;9.230;2023-02-01T14:33:27;5.70;99.90
4451;DHT22;2238;50.180;9.230;2023-02-01T14:36:50;5.70;99.90
4451;DHT22;2238;50.180;9.230;2023-02-01T14:43:49;5.70;99.90
4451;DHT22;2238;50.180;9.230;2023-02-01T14:47:08;5.70;99.90
4451;DHT22;2238;50.180;9.230;2023-02-01T14:56:16;5.70;99.90
4451;DHT22;2238;50.180;9.230;2023-02-01T14:59:22;5.70;99.90
4451;DHT22;2238;50.180;9.230;2023-02-01T15:02:26;5.80;99.90
4451;DHT22;2238;50.180;9.230;2023-02-01T15:05:32;5.70;99.90
4451;DHT22;2238;50.180;9.230;2023-02-01T15:08:37;6.00;99.90
4451;DHT22;2238;50.180;9.230;2023-02-01T15:18:16;5.70;99.90
4451;DHT22;2238;50.180;9.230;2023-02-01T15:21:23;5.80;99.90
4451;DHT22;2238;50.180;9.230;2023-02-01T15:24:26;5.70;99.90
4451;DHT22;2238;50.180;9.230;2023-02-01T15:27:28;5.80;99.90
4451;DHT22;2238;50.180;9.230;2023-02-01T15:30:32;5.90;99.90
4451;DHT22;2238;50.180;9.230;2023-02-01T15:33:33;6.10;99.90
4451;DHT22;2238;50.180;9.230;2023-02-01T15:36:33;6.00;99.90
4451;DHT22;2238;50.180;9.230;2023-02-01T15:39:35;6.00;99.90
4451;DHT22;2238;50.180;9.230;2023-02-01T15:42:51;6.10;99.90
4451;DHT22;2238;50.180;9.230;2023-02-01T15:45:59;6.10;99.90
4451;DHT22;2238;50.180;9.230;2023-02-01T15:49:00;6.10;99.90
4451;DHT22;2238;50.180;9.230;2023-02-01T15:52:02;6.20;99.90
4451;DHT22;2238;50.180;9.230;2023-02-01T15:55:17;6.20;99.90
4451;DHT22;2238;50.180;9.230;2023-02-01T15:58:23;6.20;99.90
4451;DHT22;2238;50.180;9.230;2023-02-01T16:01:23;6.10;99.90
4451;DHT22;2238;50.180;9.230;2023-02-01T16:04:26;6.20;99.90
4451;DHT22;2238;50.180;9.230;2023-02-01T16:07:32;6.20;99.90
4451;DHT22;2238;50.180;9.230;2023-02-01T16:10:39;6.20;99.90
4451;DHT22;2238;50.180;9.230;2023-02-01T16:13:40;6.20;99.90
4451;DHT22;2238;50.180;9.230;2023-02-01T16:16:41;6.20;99.90
4451;DHT22;2238;50.180;9.230;2023-02-01T16:19:42;6.20;99.90
4451;DHT22;2238;50.180;9.230;2023-02-01T16:22:42;6.20;99.90
4451;DHT22;2238;50.180;9.230;2023-02-01T16:25:43;7.60;99.90
4451;DHT22;2238;50.180;9.230;2023-02-01T16:28:43;6.20;99.90
4451;DHT22;2238;50.180;9.230;2023-02-01T16:31:44;6.10;99.90
4451;DHT22;2238;50.180;9.230;2023-02-01T16:34:46;6.10;99.90
4451;DHT22;2238;50.180;9.230;2023-02-01T16:37:46;6.30;99.90
4451;DHT22;2238;50.180;9.230;2023-02-01T16:40:48;6.20;99.90
4451;DHT22;2238;50.180;9.230;2023-02-01T16:43:51;6.20;99.90
4451;DHT22;2238;50.180;9.230;2023-02-01T16:46:52;6.20;99.90
4451;DHT22;2238;50.180;9.230;2023-02-01T16:49:52;6.20;99.90
4451;DHT22;2238;50.180;9.230;2023-02-01T16:52:53;6.30;99.90
4451;DHT22;2238;50.180;9.230;2023-02-01T16:55:53;8.00;99.90
4451;DHT22;2238;50.180;9.230;2023-02-01T16:58:54;6.20;99.90
4451;DHT22;2238;50.180;9.230;2023-02-01T17:01:55;6.20;99.90
4451;DHT22;2238;50.180;9.230;2023-02-01T17:04:55;6.20;99.90
4451;DHT22;2238;50.180;9.230;2023-02-01T17:08:01;6.20;99.90
4451;DHT22;2238;50.180;9.230;2023-02-01T17:11:05;6.20;99.90
4451;DHT22;2238;50.180;9.230;2023-02-01T17:14:17;6.20;99.90
4451;DHT22;2238;50.180;9.230;2023-02-01T17:17:19;6.20;99.90
4451;DHT22;2238;50.180;9.230;2023-02-01T17:20:22;6.30;99.90
4451;DHT22;2238;50.180;9.230;2023-02-01T17:23:24;6.30;99.90
4451;DHT22;2238;50.180;9.230;2023-02-01T17:26:24;6.20;99.90
4451;DHT22;2238;50.180;9.230;2023-02-01T17:29:25;6.20;99.90
4451;DHT22;2238;50.180;9.230;2023-02-01T17:32:26;6.20;99.90
4451;DHT22;2238;50.180;9.230;2023-02-01T17:35:27;6.30;99.90
4451;DHT22;2238;50.180;9.230;2023-02-01T17:38:28;6.30;99.90
4451;DHT22;2238;50.180;9.230;2023-02-01T17:41:29;6.30;99.90
4451;DHT22;2238;50.180;9.230;2023-02-01T17:44:29;6.30;99.90
4451;DHT22;2238;50.180;9.230;2023-02-01T17:47:30;6.30;99.90
4451;DHT22;2238;50.180;9.230;2023-02-01T17:50:32;6.30;99.90
4451;DHT22;2238;50.180;9.230;2023-02-01T17:53:34;8.40;99.90
4451;DHT22;2238;50.180;9.230;2023-02-01T17:56:35;6.30;99.90
4451;DHT22;2238;50.180;9.230;2023-02-01T17:59:35;6.30;99.90
4451;DHT22;2238;50.180;9.230;2023-02-01T18:02:36;6.30;99.90
4451;DHT22;2238;50.180;9.230;2023-02-01T18:05:40;6.30;99.90
4451;DHT22;2238;50.180;9.230;2023-02-01T18:08:42;6.30;99.90
4451;DHT22;2238;50.180;9.230;2023-02-01T18:11:43;6.30;99.90
4451;DHT22;2238;50.180;9.230;2023-02-01T18:14:44;6.30;99.90
4451;DHT22;2238;50.180;9.230;2023-02-01T18:17:45;6.20;99.90
4451;DHT22;2238;50.180;9.230;2023-02-01T18:20:46;6.20;99.90
4451;DHT22;2238;50.180;9.230;2023-02-01T18:23:47;6.20;99.90
4451;DHT22;2238;50.180;9.230;2023-02-01T18:26:48;6.20;99.90
4451;DHT22;2238;50.180;9.230;2023-02-01T18:29:49;6.20;99.90
4451;DHT22;2238;50.180;9.230;2023-02-01T18:32:50;6.10;99.90
4451;DHT22;2238;50.180;9.230;2023-02-01T18:35:51;6.10;99.90
4451;DHT22;2238;50.180;9.230;2023-02-01T18:38:51;6.90;99.90
4451;DHT22;2238;50.180;9.230;2023-02-01T18:41:55;6.70;99.90
4451;DHT22;2238;50.180;9.230;2023-02-01T18:44:56;6.00;99.90
4451;DHT22;2238;50.180;9.230;2023-02-01T18:47:58;6.00;99.90
4451;DHT22;2238;50.180;9.230;2023-02-01T18:50:59;6.00;99.90
4451;DHT22;2238;50.180;9.230;2023-02-01T18:53:59;5.90;99.90
4451;DHT22;2238;50.180;9.230;2023-02-01T18:57:00;5.90;99.90
4451;DHT22;2238;50.180;9.230;2023-02-01T19:00:02;5.90;99.90
4451;DHT22;2238;50.180;9.230;2023-02-01T19:03:03;5.90;99.90
4451;DHT22;2238;50.180;9.230;2023-02-01T19:06:04;5.90;99.90
4451;DHT22;2238;50.180;9.230;2023-02-01T19:09:04;5.90;99.90
4451;DHT22;2238;50.180;9.230;2023-02-01T19:12:05;6.00;99.90
4451;DHT22;2238;50.180;9.230;2023-02-01T19:15:07;5.90;99.90
4451;DHT22;2238;50.180;9.230;2023-02-01T19:18:12;5.90;99.90
4451;DHT22;2238;50.180;9.230;2023-02-01T19:21:14;5.80;99.90
4451;DHT22;2238;50.180;9.230;2023-02-01T19:24:15;5.80;99.90
4451;DHT22;2238;50.180;9.230;2023-02-01T19:27:16;5.80;99.90
4451;DHT22;2238;50.180;9.230;2023-02-01T19:30:18;5.80;99.90
4451;DHT22;2238;50.180;9.230;2023-02-01T19:33:19;5.80;99.90
4451;DHT22;2238;50.180;9.230;2023-02-01T19:36:19;5.70;99.90
4451;DHT22;2238;50.180;9.230;2023-02-01T19:39:20;5.70;99.90
4451;DHT22;2238;50.180;9.230;2023-02-01T19:42:21;5.70;99.90
4451;DHT22;2238;50.180;9.230;2023-02-01T19:45:22;5.70;99.90
4451;DHT22;2238;50.180;9.230;2023-02-01T19:48:22;5.70;99.90
4451;DHT22;2238;50.180;9.230;2023-02-01T19:51:23;5.70;99.90
4451;DHT22;2238;50.180;9.230;2023-02-01T19:54:24;6.90;99.90
4451;DHT22;2238;50.180;9.230;2023-02-01T19:57:24;5.70;99.90
4451;DHT22;2238;50.180;9.230;2023-02-01T20:00:25;5.70;99.90
4451;DHT22;2238;50.180;9.230;2023-02-01T20:03:26;5.60;99.90
4451;DHT22;2238;50.180;9.230;2023-02-01T20:06:31;5.60;99.90
4451;DHT22;2238;50.180;9.230;2023-02-01T20:09:32;5.60;99.90
4451;DHT22;2238;50.180;9.230;2023-02-01T20:12:34;5.60;99.90
4451;DHT22;2238;50.180;9.230;2023-02-01T20:15:35;5.60;99.90
4451;DHT22;2238;50.180;9.230;2023-02-01T20:18:35;5.60;99.90
4451;DHT22;2238;50.180;9.230;2023-02-01T20:21:37;5.60;99.90
4451;DHT22;2238;50.180;9.230;2023-02-01T20:24:38;5.60;99.90
4451;DHT22;2238;50.180;9.230;2023-02-01T20:27:39;5.60;99.90
4451;DHT22;2238;50.180;9.230;2023-02-01T20:30:42;5.60;99.90
4451;DHT22;2238;50.180;9.230;2023-02-01T20:33:42;6.50;99.90
4451;DHT22;2238;50.180;9.230;2023-02-01T20:36:43;5.60;99.90
4451;DHT22;2238;50.180;9.230;2023-02-01T20:39:43;5.60;99.90
4451;DHT22;2238;50.180;9.230;2023-02-01T20:42:44;6.50;99.90
4451;DHT22;2238;50.180;9.230;2023-02-01T20:45:48;7.40;99.90
4451;DHT22;2238;50.180;9.230;2023-02-01T20:48:49;5.70;99.90
4451;DHT22;2238;50.180;9.230;2023-02-01T20:51:50;5.80;99.90
4451;DHT22;2238;50.180;9.230;2023-02-01T20:54:51;5.80;99.90
4451;DHT22;2238;50.180;9.230;2023-02-01T20:57:51;5.80;99.90
4451;DHT22;2238;50.180;9.230;2023-02-01T21:00:52;5.80;99.90
4451;DHT22;2238;50.180;9.230;2023-02-01T21:03:53;6.00;99.90
4451;DHT22;2238;50.180;9.230;2023-02-01T21:06:55;6.00;99.90
4451;DHT22;2238;50.180;9.230;2023-02-01T21:09:55;6.00;99.90
4451;DHT22;2238;50.180;9.230;2023-02-01T21:12:56;6.10;99.90
4451;DHT22;2238;50.180;9.230;2023-02-01T21:15:57;6.10;99.90
4451;DHT22;2238;50.180;9.230;2023-02-01T21:18:58;6.00;99.90
4451;DHT22;2238;50.180;9.230;2023-02-01T21:21:59;6.00;99.90
4451;DHT22;2238;50.180;9.230;2023-02-01T21:24:59;6.00;99.90
4451;DHT22;2238;50.180;9.230;2023-02-01T21:28:00;6.10;99.90
4451;DHT22;2238;50.180;9.230;2023-02-01T21:31:00;5.90;99.90
4451;DHT22;2238;50.180;9.230;2023-02-01T21:34:01;6.10;99.90
4451;DHT22;2238;50.180;9.230;2023-02-01T21:37:02;6.20;99.90
4451;DHT22;2238;50.180;9.230;2023-02-01T21:40:03;6.20;99.90
4451;DHT22;2238;50.180;9.230;2023-02-01T21:43:03;6.20;99.90
4451;DHT22;2238;50.180;9.230;2023-02-01T21:46:04;6.20;99.90
4451;DHT22;2238;50.180;9.230;2023-02-01T21:49:05;6.30;99.90
4451;DHT22;2238;50.180;9.230;2023-02-01T21:52:05;6.30;99.90
4451;DHT22;2238;50.180;9.230;2023-02-01T21:55:06;6.30;99.90
4451;DHT22;2238;50.180;9.230;2023-02-01T21:58:07;6.30;99.90
4451;DHT22;2238;50.180;9.230;2023-02-01T22:01:11;6.30;99.90
4451;DHT22;2238;50.180;9.230;2023-02-01T22:04:12;6.30;99.90
4451;DHT22;2238;50.180;9.230;2023-02-01T22:07:13;6.30;99.90
4451;DHT22;2238;50.180;9.230;2023-02-01T22:10:13;6.30;99.90